sensor_id;sensor_type;location;lat;lon;timestamp;temperature;humidity
44277;DHT22;29973;43.742;1.236;2023-06-22T00:01:59;18.40;99.90
44277;DHT22;29973;43.742;1.236;2023-06-22T00:04:25;18.50;99.90
44277;DHT22;29973;43.742;1.236;2023-06-22T00:06:51;18.60;99.90
44277;DHT22;29973;43.742;1.236;2023-06-22T00:09:17;18.50;99.90
44277;DHT22;29973;43.742;1.236;2023-06-22T00:11:42;18.60;99.90
44277;DHT22;29973;43.742;1.236;2023-06-22T00:14:08;18.60;99.90
44277;DHT22;29973;43.742;1.236;2023-06-22T00:16:34;18.80;99.90
44277;DHT22;29973;43.742;1.236;2023-06-22T00:19:00;18.90;99.90
44277;DHT22;29973;43.742;1.236;2023-06-22T00:21:27;18.70;99.90
44277;DHT22;29973;43.742;1.236;2023-06-22T00:23:53;18.70;99.90
44277;DHT22;29973;43.742;1.236;2023-06-22T00:26:19;18.60;99.90
44277;DHT22;29973;43.742;1.236;2023-06-22T00:28:46;18.70;99.90
44277;DHT22;29973;43.742;1.236;2023-06-22T00:31:12;18.70;99.90
44277;DHT22;29973;43.742;1.236;2023-06-22T00:33:38;18.60;99.90
44277;DHT22;29973;43.742;1.236;2023-06-22T00:36:04;18.70;99.90
44277;DHT22;29973;43.742;1.236;2023-06-22T00:38:30;18.50;99.90
44277;DHT22;29973;43.742;1.236;2023-06-22T00:40:56;18.70;99.90
44277;DHT22;29973;43.742;1.236;2023-06-22T00:43:22;18.70;99.90
44277;DHT22;29973;43.742;1.236;2023-06-22T00:45:48;18.70;99.90
44277;DHT22;29973;43.742;1.236;2023-06-22T00:48:14;18.60;99.90
44277;DHT22;29973;43.742;1.236;2023-06-22T00:50:40;18.70;99.90
44277;DHT22;29973;43.742;1.236;2023-06-22T00:53:07;18.60;99.90
44277;DHT22;29973;43.742;1.236;2023-06-22T00:55:38;18.70;99.90
44277;DHT22;29973;43.742;1.236;2023-06-22T00:58:05;18.70;99.90
44277;DHT22;29973;43.742;1.236;2023-06-22T01:00:33;18.60;99.90
44277;DHT22;29973;43.742;1.236;2023-06-22T01:02:59;18.60;99.90
44277;DHT22;29973;43.742;1.236;2023-06-22T01:05:25;18.70;99.90
44277;DHT22;29973;43.742;1.236;2023-06-22T01:11:01;18.60;99.90
44277;DHT22;29973;43.742;1.236;2023-06-22T01:16:02;18.50;99.90
44277;DHT22;29973;43.742;1.236;2023-06-22T01:18:31;18.60;99.90
44277;DHT22;29973;43.742;1.236;2023-06-22T01:20:58;18.60;99.90
44277;DHT22;29973;43.742;1.236;2023-06-22T01:26:42;18.60;99.90
44277;DHT22;29973;43.742;1.236;2023-06-22T01:29:10;18.70;99.90
44277;DHT22;29973;43.742;1.236;2023-06-22T01:31:39;18.70;99.90
44277;DHT22;29973;43.742;1.236;2023-06-22T01:34:07;18.70;99.90
44277;DHT22;29973;43.742;1.236;2023-06-22T01:36:34;18.60;99.90
44277;DHT22;29973;43.742;1.236;2023-06-22T01:39:00;18.60;99.90
44277;DHT22;29973;43.742;1.236;2023-06-22T01:41:29;18.70;99.90
44277;DHT22;29973;43.742;1.236;2023-06-22T01:43:55;18.70;99.90
44277;DHT22;29973;43.742;1.236;2023-06-22T01:46:21;18.80;99.90
44277;DHT22;29973;43.742;1.236;2023-06-22T01:48:48;18.90;99.90
44277;DHT22;29973;43.742;1.236;2023-06-22T01:51:15;18.90;99.90
44277;DHT22;29973;43.742;1.236;2023-06-22T01:53:41;18.80;99.90
44277;DHT22;29973;43.742;1.236;2023-06-22T01:56:08;18.70;99.90
44277;DHT22;29973;43.742;1.236;2023-06-22T01:58:34;18.60;99.90
44277;DHT22;29973;43.742;1.236;2023-06-22T02:01:12;18.60;99.90
44277;DHT22;29973;43.742;1.236;2023-06-22T02:03:47;18.70;99.90
44277;DHT22;29973;43.742;1.236;2023-06-22T02:06:21;18.60;99.90
44277;DHT22;29973;43.742;1.236;2023-06-22T02:08:54;18.60;99.90
44277;DHT22;29973;43.742;1.236;2023-06-22T02:11:22;18.60;99.90
44277;DHT22;29973;43.742;1.236;2023-06-22T02:13:49;18.60;99.90
44277;DHT22;29973;43.742;1.236;2023-06-22T02:16:16;18.50;99.90
44277;DHT22;29973;43.742;1.236;2023-06-22T02:18:50;18.40;99.90
44277;DHT22;29973;43.742;1.236;2023-06-22T02:21:17;18.40;99.90
44277;DHT22;29973;43.742;1.236;2023-06-22T02:23:43;18.30;99.90
44277;DHT22;29973;43.742;1.236;2023-06-22T02:26:09;18.40;99.90
44277;DHT22;29973;43.742;1.236;2023-06-22T02:28:35;18.30;99.90
44277;DHT22;29973;43.742;1.236;2023-06-22T02:31:01;18.30;99.90
44277;DHT22;29973;43.742;1.236;2023-06-22T02:33:26;18.30;99.90
44277;DHT22;29973;43.742;1.236;2023-06-22T02:35:52;18.30;99.90
44277;DHT22;29973;43.742;1.236;2023-06-22T02:38:18;18.40;99.90
44277;DHT22;29973;43.742;1.236;2023-06-22T02:40:45;18.40;99.90
44277;DHT22;29973;43.742;1.236;2023-06-22T02:43:12;18.50;99.90
44277;DHT22;29973;43.742;1.236;2023-06-22T02:45:37;18.30;99.90
44277;DHT22;29973;43.742;1.236;2023-06-22T02:48:04;18.30;99.90
44277;DHT22;29973;43.742;1.236;2023-06-22T02:50:29;18.30;99.90
44277;DHT22;29973;43.742;1.236;2023-06-22T02:52:55;18.30;99.90
44277;DHT22;29973;43.742;1.236;2023-06-22T02:55:21;18.30;99.90
44277;DHT22;29973;43.742;1.236;2023-06-22T02:57:46;18.30;99.90
44277;DHT22;29973;43.742;1.236;2023-06-22T03:00:14;18.20;99.90
44277;DHT22;29973;43.742;1.236;2023-06-22T03:02:47;18.30;99.90
44277;DHT22;29973;43.742;1.236;2023-06-22T03:05:14;18.30;99.90
44277;DHT22;29973;43.742;1.236;2023-06-22T03:07:45;18.30;99.90
44277;DHT22;29973;43.742;1.236;2023-06-22T03:10:13;18.20;99.90
44277;DHT22;29973;43.742;1.236;2023-06-22T03:12:39;18.20;99.90
44277;DHT22;29973;43.742;1.236;2023-06-22T03:15:06;18.20;99.90
44277;DHT22;29973;43.742;1.236;2023-06-22T03:17:33;18.30;99.90
44277;DHT22;29973;43.742;1.236;2023-06-22T03:20:00;18.30;99.90
44277;DHT22;29973;43.742;1.236;2023-06-22T03:22:26;18.40;99.90
44277;DHT22;29973;43.742;1.236;2023-06-22T03:24:52;18.30;99.90
44277;DHT22;29973;43.742;1.236;2023-06-22T03:27:17;18.40;99.90
44277;DHT22;29973;43.742;1.236;2023-06-22T03:29:44;18.40;99.90
44277;DHT22;29973;43.742;1.236;2023-06-22T03:32:10;18.40;99.90
44277;DHT22;29973;43.742;1.236;2023-06-22T03:34:35;18.40;99.90
44277;DHT22;29973;43.742;1.236;2023-06-22T03:37:01;18.40;99.90
44277;DHT22;29973;43.742;1.236;2023-06-22T03:39:28;18.30;99.90
44277;DHT22;29973;43.742;1.236;2023-06-22T03:41:54;18.40;99.90
44277;DHT22;29973;43.742;1.236;2023-06-22T03:44:19;18.40;99.90
44277;DHT22;29973;43.742;1.236;2023-06-22T03:46:45;18.40;99.90
44277;DHT22;29973;43.742;1.236;2023-06-22T03:49:11;18.50;99.90
44277;DHT22;29973;43.742;1.236;2023-06-22T03:51:37;18.50;99.90
44277;DHT22;29973;43.742;1.236;2023-06-22T03:54:02;18.50;99.90
44277;DHT22;29973;43.742;1.236;2023-06-22T03:56:28;18.50;99.90
44277;DHT22;29973;43.742;1.236;2023-06-22T03:58:54;18.40;99.90
44277;DHT22;29973;43.742;1.236;2023-06-22T04:01:19;18.50;99.90
44277;DHT22;29973;43.742;1.236;2023-06-22T04:03:45;18.50;99.90
44277;DHT22;29973;43.742;1.236;2023-06-22T04:06:13;18.50;99.90
44277;DHT22;29973;43.742;1.236;2023-06-22T04:08:39;18.60;99.90
44277;DHT22;29973;43.742;1.236;2023-06-22T04:11:04;18.50;99.90
44277;DHT22;29973;43.742;1.236;2023-06-22T04:13:30;18.60;99.90
44277;DHT22;29973;43.742;1.236;2023-06-22T04:15:56;18.60;99.90
44277;DHT22;29973;43.742;1.236;2023-06-22T04:18:22;18.80;99.90
44277;DHT22;29973;43.742;1.236;2023-06-22T04:20:48;18.80;99.90
44277;DHT22;29973;43.742;1.236;2023-06-22T04:23:13;18.70;99.90
44277;DHT22;29973;43.742;1.236;2023-06-22T04:25:39;18.80;99.90
44277;DHT22;29973;43.742;1.236;2023-06-22T04:28:05;18.80;99.90
44277;DHT22;29973;43.742;1.236;2023-06-22T04:30:33;18.80;99.90
44277;DHT22;29973;43.742;1.236;2023-06-22T04:32:58;18.80;99.90
44277;DHT22;29973;43.742;1.236;2023-06-22T04:35:25;18.80;99.90
44277;DHT22;29973;43.742;1.236;2023-06-22T04:37:53;18.80;99.90
44277;DHT22;29973;43.742;1.236;2023-06-22T04:40:21;18.80;99.90
44277;DHT22;29973;43.742;1.236;2023-06-22T04:42:47;18.90;99.90
44277;DHT22;29973;43.742;1.236;2023-06-22T04:45:19;18.90;99.90
44277;DHT22;29973;43.742;1.236;2023-06-22T04:47:45;18.90;99.90
44277;DHT22;29973;43.742;1.236;2023-06-22T04:50:14;18.90;99.90
44277;DHT22;29973;43.742;1.236;2023-06-22T04:52:40;18.90;99.90
44277;DHT22;29973;43.742;1.236;2023-06-22T04:55:06;18.90;99.90
44277;DHT22;29973;43.742;1.236;2023-06-22T04:57:32;19.00;99.90
44277;DHT22;29973;43.742;1.236;2023-06-22T05:00:03;19.00;99.90
44277;DHT22;29973;43.742;1.236;2023-06-22T05:02:39;19.10;99.90
44277;DHT22;29973;43.742;1.236;2023-06-22T05:05:05;19.10;99.90
44277;DHT22;29973;43.742;1.236;2023-06-22T05:07:35;19.00;99.90
44277;DHT22;29973;43.742;1.236;2023-06-22T05:10:04;19.00;99.90
44277;DHT22;29973;43.742;1.236;2023-06-22T05:12:30;19.00;99.90
44277;DHT22;29973;43.742;1.236;2023-06-22T05:14:57;19.00;99.90
44277;DHT22;29973;43.742;1.236;2023-06-22T05:17:23;19.00;99.90
44277;DHT22;29973;43.742;1.236;2023-06-22T05:19:48;19.10;99.90
44277;DHT22;29973;43.742;1.236;2023-06-22T05:22:15;19.10;99.90
44277;DHT22;29973;43.742;1.236;2023-06-22T05:24:41;19.10;99.90
44277;DHT22;29973;43.742;1.236;2023-06-22T05:27:07;19.20;99.90
44277;DHT22;29973;43.742;1.236;2023-06-22T05:29:32;19.30;99.90
44277;DHT22;29973;43.742;1.236;2023-06-22T05:31:58;19.40;99.90
44277;DHT22;29973;43.742;1.236;2023-06-22T05:34:24;19.40;99.90
44277;DHT22;29973;43.742;1.236;2023-06-22T05:36:50;19.50;99.90
44277;DHT22;29973;43.742;1.236;2023-06-22T05:39:15;19.30;99.90
44277;DHT22;29973;43.742;1.236;2023-06-22T05:41:41;19.40;99.90
44277;DHT22;29973;43.742;1.236;2023-06-22T05:44:08;19.50;99.90
44277;DHT22;29973;43.742;1.236;2023-06-22T05:46:34;19.40;99.90
44277;DHT22;29973;43.742;1.236;2023-06-22T05:49:00;19.40;99.90
44277;DHT22;29973;43.742;1.236;2023-06-22T05:51:25;19.50;99.90
44277;DHT22;29973;43.742;1.236;2023-06-22T05:53:51;19.30;99.90
44277;DHT22;29973;43.742;1.236;2023-06-22T05:56:17;19.30;99.90
44277;DHT22;29973;43.742;1.236;2023-06-22T05:58:43;19.30;99.90
44277;DHT22;29973;43.742;1.236;2023-06-22T06:01:08;19.30;99.90
44277;DHT22;29973;43.742;1.236;2023-06-22T06:03:34;19.30;99.90
44277;DHT22;29973;43.742;1.236;2023-06-22T06:06:06;19.70;99.90
44277;DHT22;29973;43.742;1.236;2023-06-22T06:08:32;19.60;99.90
44277;DHT22;29973;43.742;1.236;2023-06-22T06:10:58;19.70;99.90
44277;DHT22;29973;43.742;1.236;2023-06-22T06:13:23;20.00;99.90
44277;DHT22;29973;43.742;1.236;2023-06-22T06:15:49;20.40;99.90
44277;DHT22;29973;43.742;1.236;2023-06-22T06:18:17;20.80;99.90
44277;DHT22;29973;43.742;1.236;2023-06-22T06:20:42;21.00;99.90
44277;DHT22;29973;43.742;1.236;2023-06-22T06:23:08;21.40;99.90
44277;DHT22;29973;43.742;1.236;2023-06-22T06:25:34;21.70;99.90
44277;DHT22;29973;43.742;1.236;2023-06-22T06:27:59;21.90;99.90
44277;DHT22;29973;43.742;1.236;2023-06-22T06:30:25;21.40;99.90
44277;DHT22;29973;43.742;1.236;2023-06-22T06:32:51;21.50;99.90
44277;DHT22;29973;43.742;1.236;2023-06-22T06:35:17;21.50;99.90
44277;DHT22;29973;43.742;1.236;2023-06-22T06:37:48;21.70;99.90
44277;DHT22;29973;43.742;1.236;2023-06-22T06:40:14;21.20;99.90
44277;DHT22;29973;43.742;1.236;2023-06-22T06:42:42;21.20;99.90
44277;DHT22;29973;43.742;1.236;2023-06-22T06:45:19;21.10;99.90
44277;DHT22;29973;43.742;1.236;2023-06-22T06:47:46;21.20;99.90
44277;DHT22;29973;43.742;1.236;2023-06-22T06:50:12;21.20;99.90
44277;DHT22;29973;43.742;1.236;2023-06-22T06:52:38;21.10;99.90
44277;DHT22;29973;43.742;1.236;2023-06-22T06:55:04;21.50;99.90
44277;DHT22;29973;43.742;1.236;2023-06-22T06:57:34;21.50;99.90
44277;DHT22;29973;43.742;1.236;2023-06-22T07:00:03;21.50;99.90
44277;DHT22;29973;43.742;1.236;2023-06-22T07:02:34;21.80;99.90
44277;DHT22;29973;43.742;1.236;2023-06-22T07:04:59;21.90;99.90
44277;DHT22;29973;43.742;1.236;2023-06-22T07:07:25;21.90;99.90
44277;DHT22;29973;43.742;1.236;2023-06-22T07:09:52;22.30;99.90
44277;DHT22;29973;43.742;1.236;2023-06-22T07:12:19;21.80;99.90
44277;DHT22;29973;43.742;1.236;2023-06-22T07:14:45;21.40;99.90
44277;DHT22;29973;43.742;1.236;2023-06-22T07:17:10;21.70;99.90
44277;DHT22;29973;43.742;1.236;2023-06-22T07:19:36;22.00;99.90
44277;DHT22;29973;43.742;1.236;2023-06-22T07:22:02;21.70;99.90
44277;DHT22;29973;43.742;1.236;2023-06-22T07:24:27;22.00;99.90
44277;DHT22;29973;43.742;1.236;2023-06-22T07:26:53;22.20;99.90
44277;DHT22;29973;43.742;1.236;2023-06-22T07:29:22;21.80;99.90
44277;DHT22;29973;43.742;1.236;2023-06-22T07:31:50;22.00;99.90
44277;DHT22;29973;43.742;1.236;2023-06-22T07:34:22;21.90;99.90
44277;DHT22;29973;43.742;1.236;2023-06-22T07:36:48;21.50;99.90
44277;DHT22;29973;43.742;1.236;2023-06-22T07:39:13;21.00;99.90
44277;DHT22;29973;43.742;1.236;2023-06-22T07:41:40;21.10;99.90
44277;DHT22;29973;43.742;1.236;2023-06-22T07:44:09;20.70;99.90
44277;DHT22;29973;43.742;1.236;2023-06-22T07:46:34;20.50;99.90
44277;DHT22;29973;43.742;1.236;2023-06-22T07:49:02;20.30;99.90
44277;DHT22;29973;43.742;1.236;2023-06-22T07:51:32;20.20;99.90
44277;DHT22;29973;43.742;1.236;2023-06-22T07:53:58;19.60;99.90
44277;DHT22;29973;43.742;1.236;2023-06-22T07:56:24;19.40;99.90
44277;DHT22;29973;43.742;1.236;2023-06-22T07:58:50;19.30;99.90
44277;DHT22;29973;43.742;1.236;2023-06-22T08:01:16;19.20;99.90
44277;DHT22;29973;43.742;1.236;2023-06-22T08:03:42;19.20;99.90
44277;DHT22;29973;43.742;1.236;2023-06-22T08:06:09;19.30;99.90
44277;DHT22;29973;43.742;1.236;2023-06-22T08:08:36;19.40;99.90
44277;DHT22;29973;43.742;1.236;2023-06-22T08:11:01;19.70;99.90
44277;DHT22;29973;43.742;1.236;2023-06-22T08:13:27;19.80;99.90
44277;DHT22;29973;43.742;1.236;2023-06-22T08:15:53;19.90;99.90
44277;DHT22;29973;43.742;1.236;2023-06-22T08:18:19;20.30;99.90
44277;DHT22;29973;43.742;1.236;2023-06-22T08:20:44;20.40;99.90
44277;DHT22;29973;43.742;1.236;2023-06-22T08:23:10;20.40;99.90
44277;DHT22;29973;43.742;1.236;2023-06-22T08:25:36;20.50;99.90
44277;DHT22;29973;43.742;1.236;2023-06-22T08:28:03;20.40;99.90
44277;DHT22;29973;43.742;1.236;2023-06-22T08:30:29;20.20;99.90
44277;DHT22;29973;43.742;1.236;2023-06-22T08:32:55;20.00;99.90
44277;DHT22;29973;43.742;1.236;2023-06-22T08:35:22;20.00;99.90
44277;DHT22;29973;43.742;1.236;2023-06-22T08:37:50;20.00;99.90
44277;DHT22;29973;43.742;1.236;2023-06-22T08:40:22;19.90;99.90
44277;DHT22;29973;43.742;1.236;2023-06-22T08:42:49;19.80;99.90
44277;DHT22;29973;43.742;1.236;2023-06-22T08:45:16;20.00;99.90
44277;DHT22;29973;43.742;1.236;2023-06-22T08:47:42;20.30;99.90
44277;DHT22;29973;43.742;1.236;2023-06-22T08:50:10;20.30;99.90
44277;DHT22;29973;43.742;1.236;2023-06-22T08:52:38;20.00;99.90
44277;DHT22;29973;43.742;1.236;2023-06-22T08:55:07;20.00;99.90
44277;DHT22;29973;43.742;1.236;2023-06-22T08:57:34;20.00;99.90
44277;DHT22;29973;43.742;1.236;2023-06-22T09:00:03;20.50;99.90
44277;DHT22;29973;43.742;1.236;2023-06-22T09:02:30;20.50;99.90
44277;DHT22;29973;43.742;1.236;2023-06-22T09:04:57;21.00;99.90
44277;DHT22;29973;43.742;1.236;2023-06-22T09:07:23;21.00;99.90
44277;DHT22;29973;43.742;1.236;2023-06-22T09:09:50;21.50;99.90
44277;DHT22;29973;43.742;1.236;2023-06-22T09:12:17;21.30;99.90
44277;DHT22;29973;43.742;1.236;2023-06-22T09:14:45;21.70;99.90
44277;DHT22;29973;43.742;1.236;2023-06-22T09:17:12;21.90;99.90
44277;DHT22;29973;43.742;1.236;2023-06-22T09:19:38;21.90;99.90
44277;DHT22;29973;43.742;1.236;2023-06-22T09:22:04;22.00;99.90
44277;DHT22;29973;43.742;1.236;2023-06-22T09:24:31;22.50;99.90
44277;DHT22;29973;43.742;1.236;2023-06-22T09:26:57;22.40;99.90
44277;DHT22;29973;43.742;1.236;2023-06-22T09:29:23;22.50;99.90
44277;DHT22;29973;43.742;1.236;2023-06-22T09:31:48;22.70;99.90
44277;DHT22;29973;43.742;1.236;2023-06-22T09:34:14;23.10;99.90
44277;DHT22;29973;43.742;1.236;2023-06-22T09:36:45;23.30;99.90
44277;DHT22;29973;43.742;1.236;2023-06-22T09:39:11;23.20;99.90
44277;DHT22;29973;43.742;1.236;2023-06-22T09:41:37;22.90;99.90
44277;DHT22;29973;43.742;1.236;2023-06-22T09:44:02;22.20;99.90
44277;DHT22;29973;43.742;1.236;2023-06-22T09:46:28;22.50;99.90
44277;DHT22;29973;43.742;1.236;2023-06-22T09:48:54;22.50;99.90
44277;DHT22;29973;43.742;1.236;2023-06-22T09:51:20;22.50;99.90
44277;DHT22;29973;43.742;1.236;2023-06-22T09:53:47;22.60;99.90
44277;DHT22;29973;43.742;1.236;2023-06-22T09:56:13;23.20;99.90
44277;DHT22;29973;43.742;1.236;2023-06-22T09:58:43;23.80;99.90
44277;DHT22;29973;43.742;1.236;2023-06-22T10:01:09;24.30;99.90
44277;DHT22;29973;43.742;1.236;2023-06-22T10:03:36;24.80;99.90
44277;DHT22;29973;43.742;1.236;2023-06-22T10:06:01;24.80;99.90
44277;DHT22;29973;43.742;1.236;2023-06-22T10:08:27;24.40;99.90
44277;DHT22;29973;43.742;1.236;2023-06-22T10:10:53;24.70;99.90
44277;DHT22;29973;43.742;1.236;2023-06-22T10:13:19;24.60;99.90
44277;DHT22;29973;43.742;1.236;2023-06-22T10:15:44;25.10;99.90
44277;DHT22;29973;43.742;1.236;2023-06-22T10:18:17;25.20;99.90
44277;DHT22;29973;43.742;1.236;2023-06-22T10:20:44;26.00;99.90
44277;DHT22;29973;43.742;1.236;2023-06-22T10:23:09;25.80;99.90
44277;DHT22;29973;43.742;1.236;2023-06-22T10:25:35;25.30;99.90
44277;DHT22;29973;43.742;1.236;2023-06-22T10:28:01;25.60;99.90
44277;DHT22;29973;43.742;1.236;2023-06-22T10:30:26;24.60;99.90
44277;DHT22;29973;43.742;1.236;2023-06-22T10:32:54;25.50;99.90
44277;DHT22;29973;43.742;1.236;2023-06-22T10:35:19;26.40;99.90
44277;DHT22;29973;43.742;1.236;2023-06-22T10:37:46;24.90;99.90
44277;DHT22;29973;43.742;1.236;2023-06-22T10:40:13;25.70;99.90
44277;DHT22;29973;43.742;1.236;2023-06-22T10:42:40;26.40;99.50
44277;DHT22;29973;43.742;1.236;2023-06-22T10:45:07;25.70;99.40
44277;DHT22;29973;43.742;1.236;2023-06-22T10:47:34;25.70;98.50
44277;DHT22;29973;43.742;1.236;2023-06-22T10:49:59;26.00;98.30
44277;DHT22;29973;43.742;1.236;2023-06-22T10:52:25;26.30;97.20
44277;DHT22;29973;43.742;1.236;2023-06-22T10:54:51;26.00;97.50
44277;DHT22;29973;43.742;1.236;2023-06-22T10:57:18;26.10;97.00
44277;DHT22;29973;43.742;1.236;2023-06-22T10:59:44;26.60;99.90
44277;DHT22;29973;43.742;1.236;2023-06-22T11:02:10;26.90;96.00
44277;DHT22;29973;43.742;1.236;2023-06-22T11:04:35;27.40;96.20
44277;DHT22;29973;43.742;1.236;2023-06-22T11:07:01;26.10;94.50
44277;DHT22;29973;43.742;1.236;2023-06-22T11:09:27;26.80;94.70
44277;DHT22;29973;43.742;1.236;2023-06-22T11:11:52;26.90;93.80
44277;DHT22;29973;43.742;1.236;2023-06-22T11:14:21;27.00;93.60
44277;DHT22;29973;43.742;1.236;2023-06-22T11:16:48;27.90;90.70
44277;DHT22;29973;43.742;1.236;2023-06-22T11:19:13;27.30;91.30
44277;DHT22;29973;43.742;1.236;2023-06-22T11:21:39;26.90;92.00
44277;DHT22;29973;43.742;1.236;2023-06-22T11:24:05;27.00;91.20
44277;DHT22;29973;43.742;1.236;2023-06-22T11:26:31;26.80;92.70
44277;DHT22;29973;43.742;1.236;2023-06-22T11:28:57;27.10;92.50
44277;DHT22;29973;43.742;1.236;2023-06-22T11:31:23;27.50;91.10
44277;DHT22;29973;43.742;1.236;2023-06-22T11:33:49;27.60;93.20
44277;DHT22;29973;43.742;1.236;2023-06-22T11:36:15;26.70;92.00
44277;DHT22;29973;43.742;1.236;2023-06-22T11:38:42;26.40;93.20
44277;DHT22;29973;43.742;1.236;2023-06-22T11:41:09;27.10;93.50
44277;DHT22;29973;43.742;1.236;2023-06-22T11:43:35;26.80;95.60
44277;DHT22;29973;43.742;1.236;2023-06-22T11:46:04;27.20;93.00
44277;DHT22;29973;43.742;1.236;2023-06-22T11:48:30;28.20;89.70
44277;DHT22;29973;43.742;1.236;2023-06-22T11:50:56;28.90;90.20
44277;DHT22;29973;43.742;1.236;2023-06-22T11:53:24;27.50;90.70
44277;DHT22;29973;43.742;1.236;2023-06-22T11:55:50;28.20;88.80
44277;DHT22;29973;43.742;1.236;2023-06-22T11:58:16;28.30;90.50
44277;DHT22;29973;43.742;1.236;2023-06-22T12:00:42;28.00;90.40
44277;DHT22;29973;43.742;1.236;2023-06-22T12:03:08;27.50;89.20
44277;DHT22;29973;43.742;1.236;2023-06-22T12:05:34;26.50;90.60
44277;DHT22;29973;43.742;1.236;2023-06-22T12:08:01;26.50;93.30
44277;DHT22;29973;43.742;1.236;2023-06-22T12:10:27;27.60;91.00
44277;DHT22;29973;43.742;1.236;2023-06-22T12:12:55;27.70;90.30
44277;DHT22;29973;43.742;1.236;2023-06-22T12:15:23;26.90;91.10
44277;DHT22;29973;43.742;1.236;2023-06-22T12:17:48;27.30;89.90
44277;DHT22;29973;43.742;1.236;2023-06-22T12:20:14;28.80;90.00
44277;DHT22;29973;43.742;1.236;2023-06-22T12:22:41;29.70;83.50
44277;DHT22;29973;43.742;1.236;2023-06-22T12:25:10;29.10;86.00
44277;DHT22;29973;43.742;1.236;2023-06-22T12:27:36;29.20;84.80
44277;DHT22;29973;43.742;1.236;2023-06-22T12:30:02;29.90;83.00
44277;DHT22;29973;43.742;1.236;2023-06-22T12:32:29;32.70;68.10
44277;DHT22;29973;43.742;1.236;2023-06-22T12:34:54;29.40;80.00
44277;DHT22;29973;43.742;1.236;2023-06-22T12:37:20;27.30;84.60
44277;DHT22;29973;43.742;1.236;2023-06-22T12:39:46;29.30;78.80
44277;DHT22;29973;43.742;1.236;2023-06-22T12:42:12;31.50;74.40
44277;DHT22;29973;43.742;1.236;2023-06-22T12:44:38;33.90;66.30
44277;DHT22;29973;43.742;1.236;2023-06-22T12:47:07;31.90;68.10
44277;DHT22;29973;43.742;1.236;2023-06-22T12:49:37;32.30;63.70
44277;DHT22;29973;43.742;1.236;2023-06-22T12:52:03;31.60;68.30
44277;DHT22;29973;43.742;1.236;2023-06-22T12:54:29;32.50;62.30
44277;DHT22;29973;43.742;1.236;2023-06-22T12:56:55;31.20;67.00
44277;DHT22;29973;43.742;1.236;2023-06-22T12:59:21;31.40;63.40
44277;DHT22;29973;43.742;1.236;2023-06-22T13:01:47;33.40;58.70
44277;DHT22;29973;43.742;1.236;2023-06-22T13:04:13;34.60;57.20
44277;DHT22;29973;43.742;1.236;2023-06-22T13:06:44;34.30;58.40
44277;DHT22;29973;43.742;1.236;2023-06-22T13:09:19;31.90;61.50
44277;DHT22;29973;43.742;1.236;2023-06-22T13:11:47;32.90;57.90
44277;DHT22;29973;43.742;1.236;2023-06-22T13:14:15;31.50;61.70
44277;DHT22;29973;43.742;1.236;2023-06-22T13:16:42;31.40;66.30
44277;DHT22;29973;43.742;1.236;2023-06-22T13:19:07;28.90;70.30
44277;DHT22;29973;43.742;1.236;2023-06-22T13:21:33;28.10;72.10
44277;DHT22;29973;43.742;1.236;2023-06-22T13:24:02;27.90;73.60
44277;DHT22;29973;43.742;1.236;2023-06-22T13:26:34;30.50;67.00
44277;DHT22;29973;43.742;1.236;2023-06-22T13:29:01;32.60;63.80
44277;DHT22;29973;43.742;1.236;2023-06-22T13:31:26;30.80;65.40
44277;DHT22;29973;43.742;1.236;2023-06-22T13:33:52;33.80;58.30
44277;DHT22;29973;43.742;1.236;2023-06-22T13:36:18;33.90;58.20
44277;DHT22;29973;43.742;1.236;2023-06-22T13:38:44;33.30;59.60
44277;DHT22;29973;43.742;1.236;2023-06-22T13:41:10;30.00;69.50
44277;DHT22;29973;43.742;1.236;2023-06-22T13:43:36;31.00;67.00
44277;DHT22;29973;43.742;1.236;2023-06-22T13:46:02;32.30;65.70
44277;DHT22;29973;43.742;1.236;2023-06-22T13:48:27;31.00;66.10
44277;DHT22;29973;43.742;1.236;2023-06-22T13:50:54;31.20;66.20
44277;DHT22;29973;43.742;1.236;2023-06-22T13:53:20;31.40;68.90
44277;DHT22;29973;43.742;1.236;2023-06-22T13:55:45;29.50;72.80
44277;DHT22;29973;43.742;1.236;2023-06-22T13:58:13;29.20;72.20
44277;DHT22;29973;43.742;1.236;2023-06-22T14:00:39;28.80;75.20
44277;DHT22;29973;43.742;1.236;2023-06-22T14:03:04;27.70;77.00
44277;DHT22;29973;43.742;1.236;2023-06-22T14:05:30;27.20;81.80
44277;DHT22;29973;43.742;1.236;2023-06-22T14:07:56;25.90;99.90
44277;DHT22;29973;43.742;1.236;2023-06-22T14:10:21;26.10;91.50
44277;DHT22;29973;43.742;1.236;2023-06-22T14:12:47;25.50;89.90
44277;DHT22;29973;43.742;1.236;2023-06-22T14:15:13;27.10;84.60
44277;DHT22;29973;43.742;1.236;2023-06-22T14:17:38;27.40;81.10
44277;DHT22;29973;43.742;1.236;2023-06-22T14:20:05;27.00;84.70
44277;DHT22;29973;43.742;1.236;2023-06-22T14:22:33;27.30;87.80
44277;DHT22;29973;43.742;1.236;2023-06-22T14:25:00;27.10;86.20
44277;DHT22;29973;43.742;1.236;2023-06-22T14:27:26;28.30;86.10
44277;DHT22;29973;43.742;1.236;2023-06-22T14:29:52;30.40;79.70
44277;DHT22;29973;43.742;1.236;2023-06-22T14:32:18;31.20;77.10
44277;DHT22;29973;43.742;1.236;2023-06-22T14:34:44;33.20;71.60
44277;DHT22;29973;43.742;1.236;2023-06-22T14:37:10;33.20;68.10
44277;DHT22;29973;43.742;1.236;2023-06-22T14:39:36;34.40;65.10
44277;DHT22;29973;43.742;1.236;2023-06-22T14:42:03;32.50;67.80
44277;DHT22;29973;43.742;1.236;2023-06-22T14:44:31;31.00;69.20
44277;DHT22;29973;43.742;1.236;2023-06-22T14:46:57;30.90;70.30
44277;DHT22;29973;43.742;1.236;2023-06-22T14:49:23;31.00;72.80
44277;DHT22;29973;43.742;1.236;2023-06-22T14:51:51;31.50;69.50
44277;DHT22;29973;43.742;1.236;2023-06-22T14:54:19;30.60;72.90
44277;DHT22;29973;43.742;1.236;2023-06-22T14:56:45;31.40;75.90
44277;DHT22;29973;43.742;1.236;2023-06-22T14:59:14;29.80;75.00
44277;DHT22;29973;43.742;1.236;2023-06-22T15:01:40;29.90;75.60
44277;DHT22;29973;43.742;1.236;2023-06-22T15:04:05;28.40;77.30
44277;DHT22;29973;43.742;1.236;2023-06-22T15:06:31;28.50;79.00
44277;DHT22;29973;43.742;1.236;2023-06-22T15:08:57;29.10;78.30
44277;DHT22;29973;43.742;1.236;2023-06-22T15:11:23;29.20;77.90
44277;DHT22;29973;43.742;1.236;2023-06-22T15:13:49;28.90;74.70
44277;DHT22;29973;43.742;1.236;2023-06-22T15:16:15;31.10;73.90
44277;DHT22;29973;43.742;1.236;2023-06-22T15:18:41;29.00;77.10
44277;DHT22;29973;43.742;1.236;2023-06-22T15:21:08;25.90;88.60
44277;DHT22;29973;43.742;1.236;2023-06-22T15:23:34;25.10;91.80
44277;DHT22;29973;43.742;1.236;2023-06-22T15:26:02;24.10;94.30
44277;DHT22;29973;43.742;1.236;2023-06-22T15:28:30;24.60;94.00
44277;DHT22;29973;43.742;1.236;2023-06-22T15:30:57;25.00;93.60
44277;DHT22;29973;43.742;1.236;2023-06-22T15:33:24;24.60;94.00
44277;DHT22;29973;43.742;1.236;2023-06-22T15:35:50;25.00;93.90